createdAt,value
2022-07-28T00:02:09.254Z,1.70
2022-07-28T00:04:38.464Z,1.90
2022-07-28T00:07:07.062Z,1.42
2022-07-28T00:09:36.326Z,1.98
2022-07-28T00:12:05.669Z,1.42
2022-07-28T00:14:34.774Z,2.20
2022-07-28T00:17:03.418Z,1.52
2022-07-28T00:19:33.717Z,1.45
2022-07-28T00:22:02.880Z,1.45
2022-07-28T00:24:32.232Z,1.38
2022-07-28T00:27:01.606Z,1.70
2022-07-28T00:29:49.770Z,1.50
2022-07-28T00:32:20.710Z,1.48
2022-07-28T00:34:53.551Z,1.20
2022-07-28T00:37:22.415Z,1.75
2022-07-28T00:39:54.207Z,1.55
2022-07-28T00:44:52.154Z,1.60
2022-07-28T00:47:20.961Z,1.75
2022-07-28T00:49:51.628Z,1.40
2022-07-28T00:52:20.960Z,1.48
2022-07-28T00:54:50.518Z,1.33
2022-07-28T00:57:21.286Z,1.40
2022-07-28T00:59:50.424Z,1.45
2022-07-28T01:02:19.418Z,1.58
2022-07-28T01:04:50.557Z,1.40
2022-07-28T01:07:30.903Z,1.63
2022-07-28T01:10:07.671Z,1.40
2022-07-28T01:12:50.565Z,1.40
2022-07-28T01:15:31.520Z,1.42
2022-07-28T01:18:07.203Z,1.58
2022-07-28T01:20:41.278Z,1.80
2022-07-28T01:23:30.596Z,1.52
2022-07-28T01:26:15.141Z,1.50
2022-07-28T01:29:00.748Z,1.52
2022-07-28T01:31:38.171Z,1.50
2022-07-28T01:34:10.756Z,1.25
2022-07-28T01:36:44.524Z,1.75
2022-07-28T01:39:15.438Z,1.25
2022-07-28T01:41:46.627Z,1.25
2022-07-28T01:44:21.496Z,1.30
2022-07-28T01:46:58.961Z,1.35
2022-07-28T01:49:30.999Z,1.80
2022-07-28T01:52:02.588Z,1.55
2022-07-28T01:54:33.622Z,1.50
2022-07-28T01:57:03.474Z,1.40
2022-07-28T01:59:33.386Z,1.48
2022-07-28T02:02:04.559Z,1.33
2022-07-28T02:04:34.618Z,1.52
2022-07-28T02:07:05.849Z,1.77
2022-07-28T02:09:36.845Z,1.63
2022-07-28T02:12:07.664Z,1.30
2022-07-28T02:14:38.539Z,1.20
2022-07-28T02:17:12.715Z,1.52
2022-07-28T02:19:43.218Z,1.33
2022-07-28T02:22:13.761Z,1.27
2022-07-28T02:24:44.863Z,1.50
2022-07-28T02:27:23.882Z,1.42
2022-07-28T02:29:58.617Z,1.30
2022-07-28T02:32:33.627Z,1.23
2022-07-28T02:35:09.737Z,1.40
2022-07-28T02:37:41.506Z,1.67
2022-07-28T02:42:45.504Z,1.55
2022-07-28T02:45:16.702Z,1.80
2022-07-28T02:47:50.343Z,1.30
2022-07-28T02:50:23.985Z,1.40
2022-07-28T02:52:55.870Z,1.50
2022-07-28T02:55:26.365Z,1.38
2022-07-28T02:57:56.958Z,1.50
2022-07-28T03:00:26.311Z,1.70
2022-07-28T03:02:58.593Z,1.35
2022-07-28T03:05:28.996Z,1.73
2022-07-28T03:07:59.688Z,1.70
2022-07-28T03:10:33.491Z,1.37
2022-07-28T03:13:05.521Z,1.73
2022-07-28T03:15:35.499Z,1.70
2022-07-28T03:18:06.637Z,1.92
2022-07-28T03:20:36.282Z,1.63
2022-07-28T03:23:05.772Z,1.70
2022-07-28T03:25:42.893Z,1.70
2022-07-28T03:28:17.954Z,1.60
2022-07-28T03:30:49.732Z,1.88
2022-07-28T03:33:20.722Z,2.17
2022-07-28T03:35:53.445Z,2.00
2022-07-28T03:38:25.235Z,1.85
2022-07-28T03:40:55.653Z,2.10
2022-07-28T03:43:28.755Z,1.92
2022-07-28T03:45:58.279Z,1.83
2022-07-28T03:48:31.699Z,2.00
2022-07-28T03:51:00.741Z,1.90
2022-07-28T03:53:30.896Z,2.10
2022-07-28T03:55:59.772Z,1.48
2022-07-28T03:58:29.866Z,2.00
2022-07-28T04:00:59.282Z,1.92
2022-07-28T04:03:42.479Z,1.95
2022-07-28T04:06:18.358Z,2.08
2022-07-28T04:08:48.149Z,2.47
2022-07-28T04:11:17.387Z,1.88
2022-07-28T04:13:49.163Z,1.90
2022-07-28T04:18:47.663Z,1.73
2022-07-28T04:21:18.377Z,1.65
2022-07-28T04:23:51.058Z,1.60
2022-07-28T04:26:20.936Z,1.98
2022-07-28T04:28:50.251Z,1.63
2022-07-28T04:31:19.230Z,1.45
2022-07-28T04:33:48.684Z,1.73
2022-07-28T04:36:19.949Z,1.65
2022-07-28T04:38:49.249Z,1.50
2022-07-28T04:41:18.742Z,1.52
2022-07-28T04:43:47.962Z,1.33
2022-07-28T04:46:17.370Z,1.52
2022-07-28T04:48:46.489Z,1.45
2022-07-28T04:51:16.066Z,1.80
2022-07-28T04:53:47.701Z,1.40
2022-07-28T04:56:17.237Z,1.58
2022-07-28T04:58:46.478Z,1.25
2022-07-28T05:01:17.512Z,1.17
2022-07-28T05:03:46.611Z,1.23
2022-07-28T05:06:18.851Z,1.25
2022-07-28T05:08:50.282Z,1.30
2022-07-28T05:11:19.710Z,1.00
2022-07-28T05:13:50.059Z,1.48
2022-07-28T05:16:20.753Z,1.00
2022-07-28T05:18:50.101Z,1.38
2022-07-28T05:21:22.364Z,1.35
2022-07-28T05:23:52.957Z,1.45
2022-07-28T05:26:27.305Z,1.17
2022-07-28T05:28:57.514Z,1.40
2022-07-28T05:31:26.465Z,1.50
2022-07-28T05:33:57.967Z,1.25
2022-07-28T05:36:27.041Z,1.33
2022-07-28T05:39:01.414Z,1.38
2022-07-28T05:41:30.625Z,1.50
2022-07-28T05:44:01.697Z,1.45
2022-07-28T05:46:33.538Z,1.63
2022-07-28T05:49:03.644Z,1.48
2022-07-28T05:51:41.298Z,1.35
2022-07-28T05:54:12.655Z,1.23
2022-07-28T05:56:50.045Z,1.75
2022-07-28T05:59:19.520Z,1.15
2022-07-28T06:01:49.142Z,1.27
2022-07-28T06:04:28.331Z,1.23
2022-07-28T06:06:57.703Z,1.30
2022-07-28T06:09:28.255Z,1.45
2022-07-28T06:11:57.250Z,1.10
2022-07-28T06:14:26.146Z,1.45
2022-07-28T06:16:54.806Z,1.00
2022-07-28T06:19:23.581Z,1.00
2022-07-28T06:21:53.823Z,1.05
2022-07-28T06:24:22.578Z,0.80
2022-07-28T06:26:53.566Z,0.85
2022-07-28T06:29:23.505Z,1.20
2022-07-28T06:31:52.344Z,1.25
2022-07-28T06:34:23.011Z,1.15
2022-07-28T06:36:52.193Z,0.98
2022-07-28T06:39:21.140Z,1.15
2022-07-28T06:41:50.383Z,1.02
2022-07-28T06:44:23.739Z,1.03
2022-07-28T06:46:54.313Z,0.98
2022-07-28T06:49:24.517Z,1.48
2022-07-28T06:51:53.926Z,0.73
2022-07-28T06:54:22.655Z,1.20
2022-07-28T06:56:54.270Z,1.10
2022-07-28T06:59:25.492Z,0.90
2022-07-28T07:01:55.756Z,1.10
2022-07-28T07:04:24.414Z,1.40
2022-07-28T07:06:55.145Z,1.00
2022-07-28T07:09:24.349Z,1.10
2022-07-28T07:11:53.373Z,1.05
2022-07-28T07:14:22.255Z,0.95
2022-07-28T07:16:52.366Z,0.90
2022-07-28T07:19:21.994Z,1.00
2022-07-28T07:21:51.133Z,1.10
2022-07-28T07:24:23.558Z,0.73
2022-07-28T07:26:52.416Z,1.27
2022-07-28T07:29:23.138Z,0.98
2022-07-28T07:31:53.875Z,1.00
2022-07-28T07:34:22.834Z,1.08
2022-07-28T07:36:51.826Z,1.15
2022-07-28T07:39:20.746Z,1.30
2022-07-28T07:41:50.151Z,0.93
2022-07-28T07:44:19.278Z,1.10
2022-07-28T07:46:49.067Z,1.27
2022-07-28T07:49:22.527Z,1.00
2022-07-28T07:51:51.371Z,0.95
2022-07-28T07:54:21.678Z,1.00
2022-07-28T07:56:50.572Z,1.17
2022-07-28T07:59:19.500Z,1.25
2022-07-28T08:01:54.409Z,0.80
2022-07-28T08:04:25.551Z,0.88
2022-07-28T08:06:54.926Z,0.80
2022-07-28T08:09:23.982Z,0.73
2022-07-28T08:11:53.179Z,0.75
2022-07-28T08:14:21.929Z,0.63
2022-07-28T08:16:50.767Z,0.80
2022-07-28T08:19:21.392Z,1.20
2022-07-28T08:21:53.046Z,0.75
2022-07-28T08:24:29.024Z,0.75
2022-07-28T08:27:02.827Z,0.70
2022-07-28T08:29:32.024Z,1.00
2022-07-28T08:32:01.621Z,0.75
2022-07-28T08:34:33.770Z,0.88
2022-07-28T08:37:05.846Z,0.70
2022-07-28T08:39:36.235Z,0.80
2022-07-28T08:42:08.423Z,0.90
2022-07-28T08:44:47.276Z,0.70
2022-07-28T08:47:17.602Z,0.80
2022-07-28T08:49:50.000Z,0.80
2022-07-28T08:52:22.329Z,0.80
2022-07-28T08:54:52.171Z,1.02
2022-07-28T08:57:24.169Z,1.00
2022-07-28T08:59:53.842Z,0.60
2022-07-28T09:02:26.427Z,0.80
2022-07-28T09:04:56.156Z,0.70
2022-07-28T09:07:27.814Z,0.75
2022-07-28T09:09:57.407Z,0.60
2022-07-28T09:12:31.821Z,0.93
2022-07-28T09:15:03.406Z,0.88
2022-07-28T09:17:33.901Z,1.30
2022-07-28T09:20:06.256Z,1.00
2022-07-28T09:22:57.993Z,0.80
2022-07-28T09:25:27.424Z,0.80
2022-07-28T09:27:56.833Z,0.98
2022-07-28T09:30:34.096Z,0.75
2022-07-28T09:33:40.975Z,0.82
2022-07-28T09:36:16.010Z,0.93
2022-07-28T09:38:46.773Z,1.08
2022-07-28T09:41:19.070Z,0.68
2022-07-28T09:43:54.068Z,1.08
2022-07-28T09:46:25.504Z,0.98
2022-07-28T09:48:58.115Z,0.80
2022-07-28T09:51:29.659Z,1.77
2022-07-28T09:54:14.818Z,0.90
2022-07-28T09:56:45.224Z,1.08
2022-07-28T09:59:16.178Z,0.88
2022-07-28T10:01:54.292Z,0.93
2022-07-28T10:04:34.503Z,0.80
2022-07-28T10:07:07.287Z,1.40
2022-07-28T10:09:39.181Z,1.17
2022-07-28T10:12:19.802Z,0.98
2022-07-28T10:14:50.552Z,0.63
2022-07-28T10:17:28.268Z,1.10
2022-07-28T10:19:58.935Z,0.65
2022-07-28T10:22:30.562Z,0.88
2022-07-28T10:25:03.696Z,0.82
2022-07-28T10:27:33.999Z,0.88
2022-07-28T10:30:05.099Z,0.88
2022-07-28T10:32:39.828Z,1.00
2022-07-28T10:35:12.235Z,0.82
2022-07-28T10:37:48.140Z,0.88
2022-07-28T10:40:23.746Z,1.15
2022-07-28T10:42:54.655Z,0.95
2022-07-28T10:45:41.957Z,0.82
2022-07-28T10:48:14.349Z,0.90
2022-07-28T10:50:43.345Z,0.93
2022-07-28T10:53:20.733Z,0.90
2022-07-28T10:55:56.589Z,0.85
2022-07-28T10:58:39.897Z,0.85
2022-07-28T11:01:26.738Z,0.80
2022-07-28T11:03:59.555Z,0.75
2022-07-28T11:06:30.993Z,0.85
2022-07-28T11:09:21.983Z,0.88
2022-07-28T11:11:54.683Z,0.95
2022-07-28T11:14:37.598Z,0.90
2022-07-28T11:17:33.621Z,0.90
2022-07-28T11:22:54.226Z,0.77
2022-07-28T11:25:23.223Z,0.80
2022-07-28T11:28:06.539Z,1.00
2022-07-28T11:30:55.255Z,0.95
2022-07-28T11:33:27.710Z,0.90
2022-07-28T11:35:59.314Z,1.02
2022-07-28T11:38:29.916Z,0.60
2022-07-28T11:40:59.503Z,0.80
2022-07-28T11:43:38.886Z,0.88
2022-07-28T11:46:29.333Z,0.93
2022-07-28T11:49:26.251Z,0.75
2022-07-28T11:52:15.350Z,1.00
2022-07-28T11:54:51.260Z,0.82
2022-07-28T11:57:21.476Z,0.65
2022-07-28T11:59:54.817Z,0.90
2022-07-28T12:02:26.211Z,0.90
2022-07-28T12:05:04.275Z,0.88
2022-07-28T12:07:36.071Z,0.90
2022-07-28T12:10:53.505Z,0.75
2022-07-28T12:13:13.806Z,0.80
2022-07-28T12:15:52.346Z,0.75
2022-07-28T12:18:21.108Z,1.00
2022-07-28T12:20:55.449Z,0.90
2022-07-28T12:23:44.136Z,0.90
2022-07-28T12:26:31.740Z,0.90
2022-07-28T12:29:01.433Z,0.80
2022-07-28T12:31:33.432Z,0.63
2022-07-28T12:34:02.434Z,0.82
2022-07-28T12:36:31.800Z,0.70
2022-07-28T12:39:01.618Z,0.60
2022-07-28T12:41:34.857Z,0.85
2022-07-28T12:44:06.585Z,0.70
2022-07-28T12:46:36.950Z,0.68
2022-07-28T12:49:05.864Z,0.52
2022-07-28T12:51:36.636Z,1.10
2022-07-28T12:54:07.817Z,0.65
2022-07-28T12:56:47.130Z,0.80
2022-07-28T12:59:18.544Z,0.95
2022-07-28T13:01:50.580Z,0.70
2022-07-28T13:04:42.718Z,0.80
2022-07-28T13:07:14.304Z,0.52
2022-07-28T13:09:53.269Z,0.80
2022-07-28T13:12:31.810Z,0.90
2022-07-28T13:15:07.214Z,0.80
2022-07-28T13:17:53.570Z,0.73
2022-07-28T13:20:24.405Z,0.77
2022-07-28T13:22:56.399Z,0.70
2022-07-28T13:25:25.569Z,0.70
2022-07-28T13:27:55.640Z,0.82
2022-07-28T13:30:24.922Z,0.77
2022-07-28T13:32:56.783Z,0.90
2022-07-28T13:35:26.440Z,0.60
2022-07-28T13:37:55.262Z,0.60
2022-07-28T13:40:24.330Z,0.70
2022-07-28T13:42:57.120Z,0.47
2022-07-28T13:45:30.179Z,0.63
2022-07-28T13:50:30.282Z,0.73
2022-07-28T13:52:59.510Z,0.70
2022-07-28T13:55:28.454Z,0.70
2022-07-28T13:57:57.035Z,0.30
2022-07-28T14:00:25.834Z,0.50
2022-07-28T14:02:56.150Z,0.65
2022-07-28T14:05:32.108Z,0.70
2022-07-28T14:08:02.837Z,0.70
2022-07-28T14:10:31.578Z,0.75
2022-07-28T14:13:01.600Z,0.60
2022-07-28T14:15:30.148Z,0.90
2022-07-28T14:17:59.362Z,0.60
2022-07-28T14:20:29.793Z,0.77
2022-07-28T14:22:59.168Z,1.08
2022-07-28T14:25:27.955Z,0.60
2022-07-28T14:27:57.069Z,0.55
2022-07-28T14:30:27.485Z,0.63
2022-07-28T14:32:58.379Z,0.70
2022-07-28T14:35:29.545Z,0.80
2022-07-28T14:38:42.460Z,0.63
2022-07-28T14:40:47.728Z,0.60
2022-07-28T14:43:16.721Z,0.60
2022-07-28T14:45:51.420Z,0.75
2022-07-28T14:48:35.005Z,0.70
2022-07-28T14:51:06.381Z,0.93
2022-07-28T14:56:14.428Z,0.95
2022-07-28T14:58:43.684Z,1.02
2022-07-28T15:01:12.577Z,0.50
2022-07-28T15:03:43.494Z,0.80
2022-07-28T15:06:13.842Z,0.95
2022-07-28T15:08:43.108Z,0.55
2022-07-28T15:11:11.782Z,0.70
2022-07-28T15:13:40.768Z,0.55
2022-07-28T15:16:10.106Z,0.60
2022-07-28T15:18:38.961Z,0.85
2022-07-28T15:21:08.687Z,0.52
2022-07-28T15:23:40.327Z,0.68
2022-07-28T15:26:10.469Z,0.47
2022-07-28T15:28:39.490Z,0.73
2022-07-28T15:31:08.989Z,0.60
2022-07-28T15:33:47.836Z,0.65
2022-07-28T15:36:17.495Z,0.63
2022-07-28T15:38:48.964Z,0.50
2022-07-28T15:41:20.630Z,0.70
2022-07-28T15:43:49.822Z,0.70
2022-07-28T15:46:18.659Z,0.68
2022-07-28T15:48:48.239Z,0.60
2022-07-28T15:51:18.549Z,0.65
2022-07-28T15:53:56.535Z,0.47
2022-07-28T15:56:26.493Z,0.85
2022-07-28T15:58:55.435Z,0.88
2022-07-28T16:01:24.567Z,0.60
2022-07-28T16:03:53.629Z,0.70
2022-07-28T16:06:23.386Z,0.60
2022-07-28T16:08:53.919Z,0.63
2022-07-28T16:11:22.671Z,0.52
2022-07-28T16:13:52.576Z,0.95
2022-07-28T16:16:21.450Z,0.70
2022-07-28T16:18:50.221Z,0.80
2022-07-28T16:21:19.010Z,0.70
2022-07-28T16:23:47.603Z,0.60
2022-07-28T16:26:17.548Z,1.05
2022-07-28T16:28:47.200Z,0.63
2022-07-28T16:31:16.822Z,0.60
2022-07-28T16:33:46.444Z,1.00
2022-07-28T16:36:15.437Z,0.65
2022-07-28T16:38:44.783Z,0.88
2022-07-28T16:41:16.201Z,0.73
2022-07-28T16:43:46.882Z,0.75
2022-07-28T16:46:17.330Z,0.75
2022-07-28T16:48:46.380Z,0.93
2022-07-28T16:51:15.067Z,1.00
2022-07-28T16:53:44.006Z,1.05
2022-07-28T16:56:17.549Z,1.10
2022-07-28T16:58:49.404Z,0.70
2022-07-28T17:01:18.349Z,0.75
2022-07-28T17:03:48.428Z,0.95
2022-07-28T17:06:17.390Z,0.75
2022-07-28T17:08:46.119Z,0.85
2022-07-28T17:11:14.708Z,1.13
2022-07-28T17:13:45.398Z,0.98
2022-07-28T17:16:15.979Z,0.60
2022-07-28T17:21:14.547Z,0.90
2022-07-28T17:23:43.334Z,0.50
2022-07-28T17:29:01.905Z,0.77
2022-07-28T17:31:33.882Z,0.85
2022-07-28T17:34:02.674Z,1.00
2022-07-28T17:36:35.437Z,0.77
2022-07-28T17:39:07.170Z,0.90
2022-07-28T17:41:36.000Z,0.70
2022-07-28T17:44:05.877Z,0.93
2022-07-28T17:46:36.480Z,0.93
2022-07-28T17:49:08.246Z,0.88
2022-07-28T17:51:37.648Z,0.85
2022-07-28T17:54:06.648Z,0.70
2022-07-28T17:56:37.744Z,0.80
2022-07-28T17:59:08.765Z,1.10
2022-07-28T18:01:42.386Z,1.10
2022-07-28T18:04:14.487Z,0.95
2022-07-28T18:06:44.915Z,1.13
2022-07-28T18:09:14.993Z,1.25
2022-07-28T18:11:56.784Z,1.65
2022-07-28T18:14:28.350Z,1.45
2022-07-28T18:16:59.470Z,2.00
2022-07-28T18:19:29.243Z,2.03
2022-07-28T18:21:58.427Z,1.40
2022-07-28T18:24:27.299Z,1.15
2022-07-28T18:26:57.557Z,1.52
2022-07-28T18:29:38.408Z,0.73
2022-07-28T18:32:12.456Z,1.08
2022-07-28T18:34:41.825Z,1.45
2022-07-28T18:37:10.679Z,1.48
2022-07-28T18:39:39.523Z,1.40
2022-07-28T18:42:08.659Z,1.27
2022-07-28T18:44:37.411Z,2.03
2022-07-28T18:47:06.541Z,2.22
2022-07-28T18:49:37.288Z,1.08
2022-07-28T18:52:07.130Z,1.73
2022-07-28T18:54:37.231Z,1.45
2022-07-28T18:57:05.886Z,1.40
2022-07-28T18:59:37.783Z,1.75
2022-07-28T19:02:11.008Z,1.73
2022-07-28T19:04:41.987Z,1.55
2022-07-28T19:07:11.304Z,1.40
2022-07-28T19:09:40.306Z,1.48
2022-07-28T19:12:09.857Z,2.35
2022-07-28T19:14:39.007Z,1.85
2022-07-28T19:17:09.040Z,1.85
2022-07-28T19:19:37.985Z,1.50
2022-07-28T19:22:09.876Z,1.80
2022-07-28T19:24:39.156Z,2.05
2022-07-28T19:27:08.089Z,1.77
2022-07-28T19:29:37.378Z,2.17
2022-07-28T19:32:08.225Z,1.65
2022-07-28T19:34:36.908Z,1.83
2022-07-28T19:37:07.321Z,2.03
2022-07-28T19:39:38.803Z,2.22
2022-07-28T19:42:15.441Z,1.50
2022-07-28T19:44:46.449Z,1.70
2022-07-28T19:47:15.641Z,1.58
2022-07-28T19:49:44.750Z,1.60
2022-07-28T19:52:15.007Z,1.80
2022-07-28T19:54:43.503Z,1.85
2022-07-28T19:57:20.154Z,1.70
2022-07-28T19:59:48.950Z,1.60
2022-07-28T20:02:17.788Z,1.67
2022-07-28T20:04:46.660Z,2.05
2022-07-28T20:07:16.787Z,1.95
2022-07-28T20:09:46.190Z,1.70
2022-07-28T20:12:15.189Z,1.60
2022-07-28T20:14:44.498Z,1.33
2022-07-28T20:17:24.586Z,1.67
2022-07-28T20:20:02.385Z,1.60
2022-07-28T20:22:32.413Z,2.22
2022-07-28T20:25:01.123Z,1.58
2022-07-28T20:27:29.796Z,1.88
2022-07-28T20:29:59.401Z,2.00
2022-07-28T20:32:28.561Z,1.90
2022-07-28T20:34:58.318Z,1.70
2022-07-28T20:37:36.679Z,1.75
2022-07-28T20:40:12.086Z,1.92
2022-07-28T20:42:41.195Z,1.52
2022-07-28T20:45:10.606Z,1.60
2022-07-28T20:47:40.206Z,1.60
2022-07-28T20:50:09.505Z,1.45
2022-07-28T20:52:39.441Z,1.48
2022-07-28T20:55:11.461Z,1.70
2022-07-28T20:57:40.349Z,1.35
2022-07-28T21:00:10.379Z,1.77
2022-07-28T21:02:41.805Z,1.27
2022-07-28T21:05:22.816Z,1.50
2022-07-28T21:08:05.239Z,1.67
2022-07-28T21:10:38.051Z,1.30
2022-07-28T21:13:06.800Z,1.92
2022-07-28T21:15:35.752Z,1.95
2022-07-28T21:18:04.871Z,1.80
2022-07-28T21:20:33.771Z,1.55
2022-07-28T21:23:03.140Z,1.77
2022-07-28T21:25:32.111Z,1.55
2022-07-28T21:28:19.275Z,2.72
2022-07-28T21:30:48.104Z,1.25
2022-07-28T21:33:22.411Z,1.77
2022-07-28T21:35:51.993Z,1.27
2022-07-28T21:38:22.005Z,1.65
2022-07-28T21:40:51.001Z,1.52
2022-07-28T21:43:21.423Z,1.77
2022-07-28T21:45:50.789Z,1.40
2022-07-28T21:48:23.439Z,1.58
2022-07-28T21:50:52.944Z,1.52
2022-07-28T21:53:22.685Z,1.85
2022-07-28T21:55:53.045Z,1.90
2022-07-28T21:58:23.476Z,2.15
2022-07-28T22:00:53.059Z,1.85
2022-07-28T22:03:22.199Z,2.30
2022-07-28T22:05:51.147Z,2.35
2022-07-28T22:08:19.948Z,2.22
2022-07-28T22:10:48.740Z,1.80
2022-07-28T22:13:19.077Z,1.92
2022-07-28T22:15:49.435Z,1.95
2022-07-28T22:18:18.259Z,2.03
2022-07-28T22:20:49.194Z,1.80
2022-07-28T22:23:28.761Z,1.77
2022-07-28T22:25:58.285Z,1.58
2022-07-28T22:28:29.658Z,1.35
2022-07-28T22:31:08.756Z,1.80
2022-07-28T22:33:39.166Z,2.40
2022-07-28T22:36:09.423Z,1.83
2022-07-28T22:38:38.329Z,1.73
2022-07-28T22:41:07.053Z,1.58
2022-07-28T22:43:35.994Z,1.90
2022-07-28T22:46:06.200Z,1.58
2022-07-28T22:48:34.946Z,2.05
2022-07-28T22:51:03.600Z,1.70
2022-07-28T22:53:32.246Z,1.88
2022-07-28T22:56:01.216Z,1.95
2022-07-28T22:58:29.819Z,1.85
2022-07-28T23:00:59.717Z,1.63
2022-07-28T23:03:31.305Z,1.80
2022-07-28T23:06:01.014Z,2.00
2022-07-28T23:08:29.929Z,1.60
2022-07-28T23:10:59.202Z,1.67
2022-07-28T23:13:27.772Z,1.80
2022-07-28T23:15:56.784Z,1.50
2022-07-28T23:18:25.272Z,1.73
2022-07-28T23:20:56.368Z,2.05
2022-07-28T23:23:25.013Z,1.70
2022-07-28T23:25:53.876Z,1.67
2022-07-28T23:28:23.033Z,1.60
2022-07-28T23:30:52.182Z,1.40
2022-07-28T23:33:56.130Z,1.42
2022-07-28T23:36:16.841Z,1.80
2022-07-28T23:38:55.799Z,1.10
2022-07-28T23:41:25.266Z,1.70
2022-07-28T23:43:54.140Z,1.55
2022-07-28T23:46:23.087Z,1.73
2022-07-28T23:48:52.565Z,1.63
2022-07-28T23:51:32.022Z,1.80
2022-07-28T23:54:14.594Z,1.38
2022-07-28T23:56:58.593Z,1.77
2022-07-28T23:59:30.464Z,1.80
